Bennington, VT

2:10 PM EST on March 02, 2015 (GMT -0500)
Sacred Heart School | Change Station
CLOSE
Current Station
Personal Weather Station
Location: Bennington, VT
Elevation: 685 ft
Nearby Weather Stations

Elev 685 ft 42.88 °N, 73.19 °W | Updated 21 seconds ago

Overcast
Overcast
28.0 °F
Feels Like 28 °F
N
0.0
Wind Variable Wind from NNE
Gusts 0.0 mph

Today
High -- | Low -- °F
--% Chance of Precip.
Yesterday
High -- | Low -- °F
Precip. -- in
6:27 AM 5:43 PM
Waxing Gibbous, 92% visible
Pressure 30.05 in
Visibility 7.0 miles
Clouds Few 3000 ft
Overcast 3800 ft
Windchill 28 °F
Dew Point Not available.
Humidity Not available.
Rainfall 0.00 in
Snow Depth Not available.
UV 1 out of 12
Pollen .40 out of 12
Air Quality Not available.
Flu Activity Not available.
METAR KDDH 021854Z AUTO 30010G23KT 7SM FEW030 OVC038 M02/M08 A3002 RMK AO2 PK WND 27027/1756 SNB1759E54 SLP176 P0000 T10221083

More Conditions Fewer Conditions

Pressure 30.05 in
Visibility 7.0 miles
Clouds Few 3000 ft
Overcast 3800 ft
Windchill 28 °F
Dew Point Not available.
Humidity Not available.
Rainfall 0.00 in
Snow Depth Not available.
UV 1 out of 12
Pollen .40 out of 12
Air Quality Not available.
Flu Activity Not available.
METAR KDDH 021854Z AUTO 30010G23KT 7SM FEW030 OVC038 M02/M08 A3002 RMK AO2 PK WND 27027/1756 SNB1759E54 SLP176 P0000 T10221083

More Conditions Fewer Conditions

10-Day Weather Forecast

Almanac

Astronomy

Mar. 02, 2015 Rise Set
Actual Time
Civil Twilight
Nautical Twilight
Astronomical Twilight
Moon
Length of Visible Light
Length of Day
Tomorrow will be .
, % of the Moon is Illuminated

Today's Extremes

State Highs State Lows

Community

WunderPhotos

Upload Photos

1,801,914 photos uploaded!

WunderBlogs® & News

Nearby

Air Quality

  Air Quality AQ Index Pollutant
Not available.

Snow Depth

Station Depth Elevation

Earthquake Activity

City Distance Mag. Time & Date
Minimum magnitude displayed is 2.5.

Coastal Water Temperatures

Place Temperature

Nearby Weather Stations